createdAt,value
2018-12-10T00:00:22.300Z,4.58
2018-12-10T00:01:22.290Z,4.55
2018-12-10T00:02:22.293Z,4.54
2018-12-10T00:03:22.268Z,4.54
2018-12-10T00:04:22.259Z,4.50
2018-12-10T00:05:22.253Z,4.52
2018-12-10T00:06:22.236Z,4.52
2018-12-10T00:07:22.237Z,4.55
2018-12-10T00:08:22.214Z,4.40
2018-12-10T00:09:22.236Z,4.55
2018-12-10T00:10:22.191Z,4.37
2018-12-10T00:11:22.193Z,4.43
2018-12-10T00:12:22.171Z,4.50
2018-12-10T00:13:22.160Z,4.50
2018-12-10T00:14:22.147Z,4.54
2018-12-10T00:15:22.149Z,4.40
2018-12-10T00:16:22.126Z,4.51
2018-12-10T00:17:22.120Z,4.54
2018-12-10T00:18:22.104Z,4.51
2018-12-10T00:19:22.112Z,4.51
2018-12-10T00:20:22.083Z,4.47
2018-12-10T00:21:22.070Z,4.46
2018-12-10T00:22:22.059Z,4.47
2018-12-10T00:23:22.054Z,4.44
2018-12-10T00:24:22.040Z,4.47
2018-12-10T00:25:22.060Z,4.58
2018-12-10T00:26:22.019Z,4.42
2018-12-10T00:27:22.005Z,4.46
2018-12-10T00:28:21.995Z,4.52
2018-12-10T00:29:21.992Z,4.46
2018-12-10T00:30:21.972Z,4.46
2018-12-10T00:31:21.995Z,4.44
2018-12-10T00:32:21.950Z,4.50
2018-12-10T00:33:21.941Z,4.47
2018-12-10T00:34:21.927Z,4.46
2018-12-10T00:35:21.924Z,4.42
2018-12-10T00:36:21.907Z,4.40
2018-12-10T00:37:21.930Z,4.37
2018-12-10T00:38:21.885Z,4.50
2018-12-10T00:39:21.876Z,4.33
2018-12-10T00:40:21.864Z,4.43
2018-12-10T00:41:21.855Z,4.52
2018-12-10T00:42:21.840Z,4.36
2018-12-10T00:43:21.841Z,4.36
2018-12-10T00:44:21.819Z,4.36
2018-12-10T00:45:21.808Z,4.29
2018-12-10T00:46:22.657Z,4.19
2018-12-10T00:47:21.800Z,4.19
2018-12-10T00:48:21.787Z,4.26
2018-12-10T00:49:21.763Z,4.25
2018-12-10T00:50:21.751Z,4.21
2018-12-10T00:51:21.745Z,4.18
2018-12-10T00:52:21.729Z,4.26
2018-12-10T00:53:21.742Z,4.19
2018-12-10T00:54:21.709Z,4.16
2018-12-10T00:55:21.734Z,4.25
2018-12-10T00:56:21.686Z,4.21
2018-12-10T00:57:21.675Z,4.22
2018-12-10T00:58:21.663Z,4.24
2018-12-10T00:59:21.660Z,4.33
2018-12-10T01:00:21.641Z,4.21
2018-12-10T01:01:21.650Z,4.22
2018-12-10T01:02:21.624Z,4.21
2018-12-10T01:03:21.608Z,4.22
2018-12-10T01:04:21.597Z,4.22
2018-12-10T01:05:21.593Z,4.24
2018-12-10T01:06:21.576Z,4.24
2018-12-10T01:07:21.581Z,4.28
2018-12-10T01:08:21.553Z,4.26
2018-12-10T01:09:21.542Z,4.26
2018-12-10T01:10:21.531Z,4.21
2018-12-10T01:11:21.536Z,4.22
2018-12-10T01:12:21.534Z,4.24
2018-12-10T01:13:21.499Z,4.26
2018-12-10T01:14:21.491Z,4.21
2018-12-10T01:15:21.479Z,4.34
2018-12-10T01:16:21.466Z,4.29
2018-12-10T01:17:21.469Z,4.29
2018-12-10T01:18:21.458Z,4.24
2018-12-10T01:19:21.449Z,4.28
2018-12-10T01:20:21.422Z,4.29
2018-12-10T01:21:21.411Z,4.25
2018-12-10T01:22:21.403Z,4.25
2018-12-10T01:23:21.394Z,4.28
2018-12-10T01:24:21.414Z,4.26
2018-12-10T01:25:21.370Z,4.22
2018-12-10T01:26:21.357Z,4.29
2018-12-10T01:27:21.347Z,4.33
2018-12-10T01:28:21.335Z,4.33
2018-12-10T01:29:21.323Z,4.40
2018-12-10T01:30:21.331Z,4.29
2018-12-10T01:31:21.315Z,4.34
2018-12-10T01:32:21.300Z,4.36
2018-12-10T01:33:21.280Z,4.36
2018-12-10T01:34:21.270Z,4.33
2018-12-10T01:35:21.280Z,4.36
2018-12-10T01:36:21.257Z,4.33
2018-12-10T01:37:21.236Z,4.33
2018-12-10T01:38:21.224Z,4.33
2018-12-10T01:39:21.213Z,4.33
2018-12-10T01:40:21.204Z,4.33
2018-12-10T01:41:21.228Z,4.42
2018-12-10T01:42:21.186Z,4.33
2018-12-10T01:43:21.171Z,4.42
2018-12-10T01:44:21.159Z,4.37
2018-12-10T01:45:21.148Z,4.40
2018-12-10T01:46:21.138Z,4.39
2018-12-10T01:47:21.138Z,4.43
2018-12-10T01:48:21.126Z,4.44
2018-12-10T01:49:21.104Z,4.43
2018-12-10T01:50:21.094Z,4.36
2018-12-10T01:51:21.081Z,4.40
2018-12-10T01:52:21.086Z,4.40
2018-12-10T01:53:21.076Z,4.39
2018-12-10T01:54:21.056Z,4.33
2018-12-10T01:55:21.041Z,4.32
2018-12-10T01:56:21.046Z,4.34
2018-12-10T01:57:21.015Z,4.33
2018-12-10T01:58:21.005Z,4.37
2018-12-10T01:59:20.993Z,4.39
2018-12-10T02:00:20.993Z,4.36
2018-12-10T02:01:20.985Z,4.33
2018-12-10T02:02:20.996Z,4.39
2018-12-10T02:03:20.953Z,4.39
2018-12-10T02:04:20.940Z,4.29
2018-12-10T02:05:20.928Z,4.32
2018-12-10T02:06:20.928Z,4.29
2018-12-10T02:07:20.908Z,4.33
2018-12-10T02:08:20.919Z,4.32
2018-12-10T02:09:20.884Z,4.28
2018-12-10T02:10:20.874Z,4.29
2018-12-10T02:11:20.862Z,4.25
2018-12-10T02:12:20.857Z,4.24
2018-12-10T02:13:20.841Z,4.24
2018-12-10T02:14:20.843Z,4.21
2018-12-10T02:15:20.821Z,4.25
2018-12-10T02:16:20.806Z,4.25
2018-12-10T02:17:20.796Z,4.33
2018-12-10T02:18:20.790Z,4.21
2018-12-10T02:19:20.803Z,4.24
2018-12-10T02:20:20.764Z,4.26
2018-12-10T02:21:20.751Z,4.24
2018-12-10T02:22:20.747Z,4.25
2018-12-10T02:23:20.730Z,4.22
2018-12-10T02:24:20.733Z,4.21
2018-12-10T02:25:20.753Z,4.24
2018-12-10T02:26:20.697Z,4.25
2018-12-10T02:27:20.715Z,4.26
2018-12-10T02:28:20.675Z,4.29
2018-12-10T02:29:20.675Z,4.24
2018-12-10T02:30:20.661Z,4.29
2018-12-10T02:31:20.675Z,4.21
2018-12-10T02:32:20.633Z,4.26
2018-12-10T02:33:20.619Z,4.24
2018-12-10T02:34:20.611Z,4.28
2018-12-10T02:35:20.603Z,4.24
2018-12-10T02:36:20.594Z,4.24
2018-12-10T02:37:20.591Z,4.28
2018-12-10T02:38:20.599Z,4.25
2018-12-10T02:39:20.553Z,4.26
2018-12-10T02:40:20.545Z,4.24
2018-12-10T02:41:20.532Z,4.21
2018-12-10T02:42:20.529Z,4.25
2018-12-10T02:43:20.511Z,4.18
2018-12-10T02:44:20.515Z,4.21
2018-12-10T02:45:20.513Z,4.16
2018-12-10T02:46:20.479Z,4.24
2018-12-10T02:47:20.467Z,4.21
2018-12-10T02:48:20.469Z,4.15
2018-12-10T02:49:20.445Z,4.14
2018-12-10T02:50:20.434Z,4.24
2018-12-10T02:51:20.435Z,4.12
2018-12-10T02:52:20.418Z,4.22
2018-12-10T02:53:20.403Z,4.24
2018-12-10T02:54:20.397Z,4.22
2018-12-10T02:55:20.378Z,4.18
2018-12-10T02:56:20.380Z,4.16
2018-12-10T02:57:20.359Z,4.25
2018-12-10T02:58:20.346Z,4.19
2018-12-10T02:59:20.333Z,4.19
2018-12-10T03:00:20.332Z,4.12
2018-12-10T03:01:20.336Z,4.24
2018-12-10T03:02:20.303Z,4.19
2018-12-10T03:03:20.289Z,4.14
2018-12-10T03:04:20.278Z,4.22
2018-12-10T03:05:20.273Z,4.21
2018-12-10T03:06:20.261Z,4.16
2018-12-10T03:07:20.261Z,4.12
2018-12-10T03:08:20.234Z,4.18
2018-12-10T03:09:20.229Z,4.15
2018-12-10T03:10:20.214Z,4.24
2018-12-10T03:11:20.206Z,4.22
2018-12-10T03:12:20.217Z,4.10
2018-12-10T03:13:20.179Z,4.19
2018-12-10T03:14:20.182Z,4.12
2018-12-10T03:15:20.159Z,4.21
2018-12-10T03:16:20.153Z,4.04
2018-12-10T03:17:20.141Z,4.06
2018-12-10T03:18:20.131Z,4.03
2018-12-10T03:19:20.152Z,3.98
2018-12-10T03:20:20.104Z,4.00
2018-12-10T03:21:20.092Z,4.01
2018-12-10T03:22:20.081Z,4.00
2018-12-10T03:23:20.069Z,4.01
2018-12-10T03:24:20.127Z,3.98
2018-12-10T03:25:20.084Z,3.98
2018-12-10T03:26:20.039Z,3.90
2018-12-10T03:27:20.032Z,3.89
2018-12-10T03:28:20.015Z,3.96
2018-12-10T03:29:20.002Z,3.96
2018-12-10T03:30:19.999Z,3.98
2018-12-10T03:31:19.999Z,4.00
2018-12-10T03:32:19.974Z,4.03
2018-12-10T03:33:20.133Z,4.00
2018-12-10T03:34:19.948Z,3.98
2018-12-10T03:35:19.938Z,3.97
2018-12-10T03:36:19.942Z,4.01
2018-12-10T03:37:19.946Z,4.03
2018-12-10T03:38:19.903Z,4.00
2018-12-10T03:39:19.895Z,3.97
2018-12-10T03:40:19.881Z,4.01
2018-12-10T03:41:19.878Z,4.00
2018-12-10T03:42:19.865Z,4.06
2018-12-10T03:43:19.880Z,4.12
2018-12-10T03:44:19.842Z,4.01
2018-12-10T03:45:19.827Z,3.98
2018-12-10T03:46:19.815Z,3.97
2018-12-10T03:47:19.805Z,4.00
2018-12-10T03:48:19.806Z,4.10
2018-12-10T03:49:19.794Z,3.98
2018-12-10T03:50:19.804Z,3.97
2018-12-10T03:51:19.760Z,3.98
2018-12-10T03:52:19.749Z,3.98
2018-12-10T03:53:19.739Z,3.97
2018-12-10T03:54:19.732Z,4.07
2018-12-10T03:55:19.718Z,3.98
2018-12-10T03:56:19.752Z,4.00
2018-12-10T03:57:19.695Z,3.96
2018-12-10T03:58:19.683Z,4.00
2018-12-10T03:59:19.672Z,3.96
2018-12-10T04:00:19.669Z,3.96
2018-12-10T04:01:19.651Z,3.98
2018-12-10T04:02:19.670Z,4.00
2018-12-10T04:03:19.632Z,3.96
2018-12-10T04:04:19.616Z,3.98
2018-12-10T04:05:19.608Z,3.97
2018-12-10T04:06:19.603Z,3.96
2018-12-10T04:07:19.589Z,4.00
2018-12-10T04:08:19.585Z,3.97
2018-12-10T04:09:19.563Z,3.98
2018-12-10T04:10:19.564Z,4.06
2018-12-10T04:11:19.538Z,4.06
2018-12-10T04:12:19.534Z,4.08
2018-12-10T04:13:19.523Z,3.96
2018-12-10T04:14:19.506Z,4.01
2018-12-10T04:15:19.698Z,4.06
2018-12-10T04:16:19.490Z,4.03
2018-12-10T04:17:19.475Z,3.96
2018-12-10T04:18:19.464Z,4.01
2018-12-10T04:19:19.460Z,4.00
2018-12-10T04:20:19.442Z,4.08
2018-12-10T04:21:19.465Z,4.03
2018-12-10T04:22:19.422Z,4.07
2018-12-10T04:23:19.408Z,3.97
2018-12-10T04:24:19.404Z,4.01
2018-12-10T04:25:19.464Z,4.03
2018-12-10T04:26:19.376Z,4.06
2018-12-10T04:27:19.409Z,4.08
2018-12-10T04:28:19.361Z,4.00
2018-12-10T04:29:19.342Z,3.96
2018-12-10T04:30:19.331Z,4.00
2018-12-10T04:31:19.326Z,3.90
2018-12-10T04:32:19.310Z,3.89
2018-12-10T04:33:19.311Z,3.89
2018-12-10T04:34:19.288Z,3.85
2018-12-10T04:35:19.275Z,3.80
2018-12-10T04:36:19.267Z,3.80
2018-12-10T04:37:19.259Z,3.75
2018-12-10T04:38:19.274Z,3.86
2018-12-10T04:39:19.232Z,3.70
2018-12-10T04:40:19.221Z,3.64
2018-12-10T04:41:19.210Z,3.67
2018-12-10T04:42:19.199Z,3.60
2018-12-10T04:43:19.210Z,3.64
2018-12-10T04:44:19.182Z,3.52
2018-12-10T04:45:19.171Z,3.68
2018-12-10T04:46:19.158Z,3.58
2018-12-10T04:47:19.144Z,3.62
2018-12-10T04:48:19.135Z,3.64
2018-12-10T04:49:19.280Z,3.68
2018-12-10T04:50:19.111Z,3.64
2018-12-10T04:51:19.112Z,3.76
2018-12-10T04:52:19.090Z,3.65
2018-12-10T04:53:19.079Z,3.76
2018-12-10T04:54:19.066Z,3.75
2018-12-10T04:55:19.069Z,3.76
2018-12-10T04:56:19.045Z,3.76
2018-12-10T04:57:19.036Z,3.80
2018-12-10T04:58:19.024Z,3.78
2018-12-10T04:59:19.025Z,3.80
2018-12-10T05:00:19.001Z,3.76
2018-12-10T05:01:19.012Z,3.80
2018-12-10T05:02:18.980Z,3.65
2018-12-10T05:03:18.971Z,3.64
2018-12-10T05:04:18.955Z,3.67
2018-12-10T05:05:18.947Z,3.70
2018-12-10T05:06:18.935Z,3.64
2018-12-10T05:07:18.937Z,3.61
2018-12-10T05:08:18.914Z,3.61
2018-12-10T05:09:18.910Z,3.62
2018-12-10T05:10:18.891Z,3.61
2018-12-10T05:11:18.881Z,3.54
2018-12-10T05:12:18.881Z,3.52
2018-12-10T05:13:18.857Z,3.50
2018-12-10T05:14:18.847Z,3.53
2018-12-10T05:15:18.841Z,3.53
2018-12-10T05:16:18.826Z,3.49
2018-12-10T05:17:18.829Z,3.52
2018-12-10T05:18:18.855Z,3.53
2018-12-10T05:19:18.794Z,3.62
2018-12-10T05:20:18.782Z,3.57
2018-12-10T05:21:18.777Z,3.58
2018-12-10T05:22:18.760Z,3.62
2018-12-10T05:23:18.748Z,3.68
2018-12-10T05:24:18.749Z,3.70
2018-12-10T05:25:18.750Z,3.75
2018-12-10T05:26:18.713Z,3.70
2018-12-10T05:27:18.713Z,3.68
2018-12-10T05:28:18.695Z,3.67
2018-12-10T05:29:18.684Z,3.72
2018-12-10T05:30:18.673Z,3.71
2018-12-10T05:31:18.674Z,3.75
2018-12-10T05:32:18.682Z,3.76
2018-12-10T05:33:18.646Z,3.80
2018-12-10T05:34:18.627Z,3.75
2018-12-10T05:35:18.617Z,3.71
2018-12-10T05:36:18.606Z,3.65
2018-12-10T05:37:18.594Z,3.68
2018-12-10T05:38:18.595Z,3.67
2018-12-10T05:39:18.574Z,3.70
2018-12-10T05:40:18.563Z,3.71
2018-12-10T05:41:18.552Z,3.70
2018-12-10T05:42:18.540Z,3.79
2018-12-10T05:43:18.561Z,3.72
2018-12-10T05:44:18.517Z,3.67
2018-12-10T05:45:18.513Z,3.78
2018-12-10T05:46:18.496Z,3.78
2018-12-10T05:47:18.484Z,3.70
2018-12-10T05:48:18.474Z,3.64
2018-12-10T05:49:18.474Z,3.79
2018-12-10T05:50:18.450Z,3.82
2018-12-10T05:51:18.445Z,3.85
2018-12-10T05:52:18.429Z,3.85
2018-12-10T05:53:18.415Z,3.90
2018-12-10T05:54:18.418Z,3.85
2018-12-10T05:55:18.397Z,3.86
2018-12-10T05:56:18.389Z,3.83
2018-12-10T05:57:18.378Z,3.83
2018-12-10T05:58:18.363Z,3.83
2018-12-10T05:59:18.362Z,3.90
2018-12-10T06:00:18.341Z,3.86
2018-12-10T06:01:18.330Z,3.86
2018-12-10T06:02:18.318Z,3.83
2018-12-10T06:03:20.017Z,3.94
2018-12-10T06:04:18.314Z,3.89
2018-12-10T06:05:18.284Z,3.83
2018-12-10T06:06:18.274Z,3.89
2018-12-10T06:07:18.261Z,3.89
2018-12-10T06:08:18.252Z,3.86
2018-12-10T06:09:18.242Z,3.85
2018-12-10T06:10:18.272Z,3.76
2018-12-10T06:11:18.220Z,3.80
2018-12-10T06:12:18.205Z,3.83
2018-12-10T06:13:18.196Z,3.82
2018-12-10T06:14:18.185Z,3.79
2018-12-10T06:15:18.172Z,3.61
2018-12-10T06:16:18.182Z,3.70
2018-12-10T06:17:18.152Z,3.78
2018-12-10T06:18:18.142Z,3.68
2018-12-10T06:19:18.142Z,3.68
2018-12-10T06:20:18.118Z,3.68
2018-12-10T06:21:18.121Z,3.67
2018-12-10T06:22:18.099Z,3.67
2018-12-10T06:23:18.086Z,3.57
2018-12-10T06:24:18.075Z,3.64
2018-12-10T06:25:18.078Z,3.71
2018-12-10T06:26:18.053Z,3.70
2018-12-10T06:27:18.056Z,3.68
2018-12-10T06:28:18.086Z,3.71
2018-12-10T06:29:18.020Z,3.68
2018-12-10T06:30:18.010Z,3.71
2018-12-10T06:31:17.998Z,3.65
2018-12-10T06:32:17.985Z,3.64
2018-12-10T06:33:17.976Z,3.76
2018-12-10T06:34:17.989Z,3.80
2018-12-10T06:35:17.955Z,3.68
2018-12-10T06:36:17.941Z,3.80
2018-12-10T06:37:17.930Z,3.76
2018-12-10T06:38:17.922Z,3.82
2018-12-10T06:39:17.920Z,3.78
2018-12-10T06:40:17.910Z,3.76
2018-12-10T06:41:17.888Z,3.82
2018-12-10T06:42:17.876Z,3.78
2018-12-10T06:43:17.866Z,3.78
2018-12-10T06:44:17.888Z,3.78
2018-12-10T06:45:17.844Z,3.79
2018-12-10T06:46:17.834Z,3.70
2018-12-10T06:47:17.824Z,3.78
2018-12-10T06:48:17.810Z,3.67
2018-12-10T06:49:17.797Z,3.75
2018-12-10T06:50:17.823Z,3.72
2018-12-10T06:51:17.778Z,3.79
2018-12-10T06:52:17.765Z,3.67
2018-12-10T06:53:17.764Z,3.68
2018-12-10T06:54:17.745Z,3.68
2018-12-10T06:55:17.732Z,3.65
2018-12-10T06:56:17.757Z,3.64
2018-12-10T06:57:17.716Z,3.67
2018-12-10T06:58:17.699Z,3.60
2018-12-10T06:59:17.696Z,3.54
2018-12-10T07:00:17.680Z,3.61
2018-12-10T07:01:17.666Z,3.58
2018-12-10T07:02:17.690Z,3.53
2018-12-10T07:03:17.645Z,3.57
2018-12-10T07:04:17.634Z,3.49
2018-12-10T07:05:17.626Z,3.47
2018-12-10T07:06:17.612Z,3.57
2018-12-10T07:07:17.603Z,3.50
2018-12-10T07:08:17.630Z,3.50
2018-12-10T07:09:17.580Z,3.52
2018-12-10T07:10:17.569Z,3.61
2018-12-10T07:11:17.568Z,3.50
2018-12-10T07:12:17.549Z,3.58
2018-12-10T07:13:17.536Z,3.52
2018-12-10T07:14:17.556Z,3.60
2018-12-10T07:15:17.514Z,3.50
2018-12-10T07:16:17.506Z,3.61
2018-12-10T07:17:17.497Z,3.64
2018-12-10T07:18:17.482Z,3.61
2018-12-10T07:19:17.470Z,3.60
2018-12-10T07:20:17.471Z,3.61
2018-12-10T07:21:17.448Z,3.61
2018-12-10T07:22:17.435Z,3.62
2018-12-10T07:23:17.433Z,3.61
2018-12-10T07:24:17.428Z,3.54
2018-12-10T07:25:17.419Z,3.49
2018-12-10T07:26:17.393Z,3.47
2018-12-10T07:27:17.381Z,3.40
2018-12-10T07:28:17.371Z,3.42
2018-12-10T07:29:17.382Z,3.49
2018-12-10T07:30:17.362Z,3.40
2018-12-10T07:31:17.339Z,3.34
2018-12-10T07:32:17.329Z,3.33
2018-12-10T07:33:17.316Z,3.33
2018-12-10T07:34:17.325Z,3.28
2018-12-10T07:35:17.298Z,3.24
2018-12-10T07:36:17.283Z,3.25
2018-12-10T07:37:17.270Z,3.25
2018-12-10T07:38:17.263Z,3.23
2018-12-10T07:39:17.248Z,3.24
2018-12-10T07:40:17.270Z,3.23
2018-12-10T07:41:17.238Z,3.21
2018-12-10T07:42:17.215Z,3.21
2018-12-10T07:43:17.205Z,3.21
2018-12-10T07:44:17.195Z,3.24
2018-12-10T07:45:17.184Z,3.12
2018-12-10T07:46:17.206Z,3.16
2018-12-10T07:47:17.166Z,3.21
2018-12-10T07:48:17.152Z,3.21
2018-12-10T07:49:17.142Z,3.09
2018-12-10T07:50:17.142Z,3.13
2018-12-10T07:51:17.122Z,3.12
2018-12-10T07:52:17.120Z,3.23
2018-12-10T07:53:17.116Z,3.28
2018-12-10T07:54:17.085Z,3.24
2018-12-10T07:55:17.074Z,3.23
2018-12-10T07:56:17.062Z,3.25
2018-12-10T07:57:17.089Z,3.27
2018-12-10T07:58:17.040Z,3.25
2018-12-10T07:59:17.036Z,3.24
2018-12-10T08:00:17.019Z,3.24
2018-12-10T08:01:17.009Z,3.16
2018-12-10T08:02:17.000Z,3.18
2018-12-10T08:03:17.007Z,3.33
2018-12-10T08:04:16.976Z,3.28
2018-12-10T08:05:16.967Z,3.27
2018-12-10T08:06:16.963Z,3.27
2018-12-10T08:07:16.943Z,3.27
2018-12-10T08:08:16.930Z,3.20
2018-12-10T08:09:16.954Z,3.21
2018-12-10T08:10:16.908Z,3.25
2018-12-10T08:11:16.899Z,3.23
2018-12-10T08:12:16.896Z,3.23
2018-12-10T08:13:16.877Z,3.27
2018-12-10T08:14:16.866Z,3.20
2018-12-10T08:15:16.899Z,3.20
2018-12-10T08:16:16.848Z,3.28
2018-12-10T08:17:16.832Z,3.24
2018-12-10T08:18:16.830Z,3.25
2018-12-10T08:19:16.812Z,3.24
2018-12-10T08:20:16.800Z,3.27
2018-12-10T08:21:16.803Z,3.30
2018-12-10T08:22:16.791Z,3.28
2018-12-10T08:23:16.766Z,3.27
2018-12-10T08:24:16.760Z,3.31
2018-12-10T08:25:16.745Z,3.31
2018-12-10T08:26:16.732Z,3.28
2018-12-10T08:27:16.769Z,3.21
2018-12-10T08:28:16.712Z,3.23
2018-12-10T08:29:16.701Z,3.23
2018-12-10T08:30:16.696Z,3.31
2018-12-10T08:31:16.685Z,3.27
2018-12-10T08:32:16.668Z,3.36
2018-12-10T08:33:16.690Z,3.30
2018-12-10T08:34:16.646Z,3.30
2018-12-10T08:35:16.633Z,3.31
2018-12-10T08:36:16.624Z,3.30
2018-12-10T08:37:16.616Z,3.27
2018-12-10T08:38:16.606Z,3.36
2018-12-10T08:39:16.639Z,3.39
2018-12-10T08:40:16.628Z,3.42
2018-12-10T08:41:16.568Z,3.53
2018-12-10T08:42:16.558Z,3.52
2018-12-10T08:43:16.546Z,3.54
2018-12-10T08:44:16.536Z,3.58
2018-12-10T08:45:16.546Z,3.67
2018-12-10T08:46:16.515Z,3.68
2018-12-10T08:47:16.529Z,3.71
2018-12-10T08:48:16.492Z,3.75
2018-12-10T08:49:16.481Z,3.79
2018-12-10T08:50:16.483Z,3.79
2018-12-10T08:51:16.507Z,3.72
2018-12-10T08:52:16.458Z,3.79
2018-12-10T08:53:16.436Z,3.75
2018-12-10T08:54:16.426Z,3.65
2018-12-10T08:55:16.427Z,3.68
2018-12-10T08:56:16.426Z,3.64
2018-12-10T08:57:16.402Z,3.70
2018-12-10T08:58:16.392Z,3.65
2018-12-10T08:59:16.369Z,3.68
2018-12-10T09:00:16.361Z,3.78
2018-12-10T09:01:16.349Z,3.72
2018-12-10T09:02:16.357Z,3.72
2018-12-10T09:03:16.334Z,3.78
2018-12-10T09:04:16.317Z,3.72
2018-12-10T09:05:16.303Z,3.80
2018-12-10T09:06:16.293Z,3.79
2018-12-10T09:07:16.283Z,3.88
2018-12-10T09:08:16.285Z,3.89
2018-12-10T09:09:16.268Z,3.82
2018-12-10T09:10:16.250Z,3.83
2018-12-10T09:11:16.242Z,3.80
2018-12-10T09:12:16.226Z,3.76
2018-12-10T09:13:16.251Z,3.76
2018-12-10T09:14:16.205Z,3.72
2018-12-10T09:15:16.204Z,3.80
2018-12-10T09:16:16.183Z,3.80
2018-12-10T09:17:16.171Z,3.82
2018-12-10T09:18:16.159Z,3.88
2018-12-10T09:19:16.218Z,3.80
2018-12-10T09:20:16.140Z,3.89
2018-12-10T09:21:16.137Z,3.85
2018-12-10T09:22:16.118Z,3.98
2018-12-10T09:23:16.104Z,4.03
2018-12-10T09:24:16.094Z,4.06
2018-12-10T09:25:16.118Z,4.18
2018-12-10T09:26:16.073Z,4.24
2018-12-10T09:27:16.074Z,4.25
2018-12-10T09:28:19.635Z,4.28
2018-12-10T09:29:16.041Z,4.26
2018-12-10T09:30:16.029Z,4.39
2018-12-10T09:31:16.029Z,4.25
2018-12-10T09:32:16.004Z,4.28
2018-12-10T09:33:16.000Z,4.26
2018-12-10T09:34:16.011Z,4.22
2018-12-10T09:35:15.974Z,4.24
2018-12-10T09:36:15.962Z,4.12
2018-12-10T09:37:15.951Z,4.10
2018-12-10T09:38:15.940Z,4.03
2018-12-10T09:39:15.929Z,3.96
2018-12-10T09:40:15.958Z,3.98
2018-12-10T09:41:15.908Z,3.97
2018-12-10T09:42:15.894Z,4.08
2018-12-10T09:43:15.885Z,4.08
2018-12-10T09:44:15.875Z,4.01
2018-12-10T09:45:15.863Z,4.07
2018-12-10T09:46:15.905Z,4.18
2018-12-10T09:47:15.841Z,4.21
2018-12-10T09:48:15.829Z,4.26
2018-12-10T09:49:15.819Z,4.21
2018-12-10T09:50:15.809Z,4.28
2018-12-10T09:51:15.797Z,4.36
2018-12-10T09:52:15.804Z,4.39
2018-12-10T09:53:15.776Z,4.46
2018-12-10T09:54:15.765Z,4.47
2018-12-10T09:55:15.753Z,4.52
2018-12-10T09:56:15.743Z,4.55
2018-12-10T09:57:15.756Z,4.61
2018-12-10T09:58:15.725Z,4.69
2018-12-10T09:59:15.710Z,4.62
2018-12-10T10:00:15.697Z,4.61
2018-12-10T10:01:15.688Z,4.67
2018-12-10T10:02:15.679Z,4.67
2018-12-10T10:03:15.682Z,4.79
2018-12-10T10:04:15.661Z,4.91
2018-12-10T10:05:15.729Z,4.88
2018-12-10T10:06:15.634Z,4.92
2018-12-10T10:07:15.639Z,4.95
2018-12-10T10:08:15.625Z,4.91
2018-12-10T10:09:15.601Z,4.92
2018-12-10T10:10:15.594Z,4.89
2018-12-10T10:11:15.583Z,4.83
2018-12-10T10:12:15.568Z,4.79
2018-12-10T10:13:15.571Z,4.80
2018-12-10T10:14:15.545Z,4.76
2018-12-10T10:15:15.549Z,4.73
2018-12-10T10:16:15.527Z,4.80
2018-12-10T10:17:15.518Z,4.91
2018-12-10T10:18:15.504Z,4.89
2018-12-10T10:19:15.495Z,4.86
2018-12-10T10:20:15.523Z,4.84
2018-12-10T10:21:15.473Z,4.76
2018-12-10T10:22:15.458Z,4.83
2018-12-10T10:23:15.446Z,4.86
2018-12-10T10:24:15.440Z,4.89
2018-12-10T10:25:15.426Z,4.92
2018-12-10T10:26:15.435Z,4.89
2018-12-10T10:27:15.423Z,5.05
2018-12-10T10:28:15.393Z,5.01
2018-12-10T10:29:15.381Z,5.14
2018-12-10T10:30:15.371Z,5.07
2018-12-10T10:31:15.361Z,5.09
2018-12-10T10:32:15.398Z,5.07
2018-12-10T10:33:15.341Z,5.14
2018-12-10T10:34:15.333Z,5.13
2018-12-10T10:35:15.314Z,5.09
2018-12-10T10:36:15.304Z,5.12
2018-12-10T10:37:15.294Z,5.05
2018-12-10T10:38:15.316Z,5.01
2018-12-10T10:39:15.271Z,4.95
2018-12-10T10:40:15.270Z,4.95
2018-12-10T10:41:15.249Z,4.94
2018-12-10T10:42:15.239Z,4.92
2018-12-10T10:43:15.228Z,4.96
2018-12-10T10:44:15.229Z,4.92
2018-12-10T10:45:15.206Z,4.96
2018-12-10T10:46:15.209Z,4.92
2018-12-10T10:47:15.185Z,4.96
2018-12-10T10:48:15.211Z,4.94
2018-12-10T10:49:15.166Z,4.96
2018-12-10T10:50:15.151Z,4.98
2018-12-10T10:51:15.138Z,4.91
2018-12-10T10:52:15.128Z,4.96
2018-12-10T10:53:15.118Z,4.96
2018-12-10T10:54:15.131Z,5.02
2018-12-10T10:55:15.100Z,5.05
2018-12-10T10:56:15.084Z,5.05
2018-12-10T10:57:15.144Z,5.04
2018-12-10T10:58:15.081Z,5.12
2018-12-10T10:59:15.068Z,5.09
2018-12-10T11:00:15.073Z,5.09
2018-12-10T11:01:15.031Z,5.01
2018-12-10T11:02:15.031Z,5.09
2018-12-10T11:03:15.010Z,5.02
2018-12-10T11:04:15.000Z,4.91
2018-12-10T11:05:14.990Z,4.99
2018-12-10T11:06:14.993Z,4.95
2018-12-10T11:07:14.964Z,5.04
2018-12-10T11:08:14.971Z,4.94
2018-12-10T11:09:15.714Z,4.91
2018-12-10T11:10:14.930Z,4.92
2018-12-10T11:11:14.927Z,5.07
2018-12-10T11:12:14.910Z,4.98
2018-12-10T11:13:14.934Z,4.94
2018-12-10T11:14:14.888Z,4.95
2018-12-10T11:15:14.874Z,4.89
2018-12-10T11:16:14.873Z,4.91
2018-12-10T11:17:14.853Z,5.02
2018-12-10T11:18:14.846Z,4.91
2018-12-10T11:19:14.876Z,5.02
2018-12-10T11:20:14.824Z,5.04
2018-12-10T11:21:14.812Z,4.91
2018-12-10T11:22:14.803Z,4.96
2018-12-10T11:23:14.789Z,5.02
2018-12-10T11:24:14.777Z,4.95
2018-12-10T11:25:14.817Z,4.96
2018-12-10T11:26:14.756Z,5.01
2018-12-10T11:27:14.746Z,5.07
2018-12-10T11:28:14.738Z,5.04
2018-12-10T11:29:14.724Z,4.99
2018-12-10T11:30:14.714Z,5.02
2018-12-10T11:31:17.286Z,4.98
2018-12-10T11:32:14.688Z,4.98
2018-12-10T11:33:14.679Z,5.07
2018-12-10T11:34:14.666Z,4.98
2018-12-10T11:35:14.656Z,5.05
2018-12-10T11:36:14.678Z,5.13
2018-12-10T11:37:14.638Z,5.20
2018-12-10T11:38:14.623Z,5.34
2018-12-10T11:39:14.611Z,5.28
2018-12-10T11:40:14.601Z,5.27
2018-12-10T11:41:14.590Z,5.40
2018-12-10T11:42:14.592Z,5.48
2018-12-10T11:43:14.588Z,5.41
2018-12-10T11:44:14.555Z,5.53
2018-12-10T11:45:14.545Z,5.49
2018-12-10T11:46:14.534Z,5.46
2018-12-10T11:47:14.523Z,5.43
2018-12-10T11:48:14.545Z,5.35
2018-12-10T11:49:14.507Z,5.55
2018-12-10T11:50:14.555Z,5.53
2018-12-10T11:51:14.481Z,5.48
2018-12-10T11:52:14.468Z,5.53
2018-12-10T11:53:14.456Z,5.56
2018-12-10T11:54:14.474Z,5.48
2018-12-10T11:55:14.436Z,5.50
2018-12-10T11:56:14.439Z,5.43
2018-12-10T11:57:14.414Z,5.45
2018-12-10T11:58:14.403Z,5.48
2018-12-10T11:59:14.412Z,5.52
2018-12-10T12:00:14.408Z,5.57
2018-12-10T12:01:14.370Z,5.59
2018-12-10T12:02:14.362Z,5.64
2018-12-10T12:03:14.359Z,5.59
2018-12-10T12:04:14.344Z,5.63
2018-12-10T12:05:14.358Z,5.67
2018-12-10T12:06:14.325Z,5.71
2018-12-10T12:07:14.316Z,5.70
2018-12-10T12:08:14.316Z,5.73
2018-12-10T12:09:14.281Z,5.74
2018-12-10T12:10:14.310Z,5.78
2018-12-10T12:11:14.299Z,5.83
2018-12-10T12:12:14.287Z,5.85
2018-12-10T12:13:14.243Z,5.89
2018-12-10T12:14:14.266Z,5.75
2018-12-10T12:15:14.243Z,5.71
2018-12-10T12:16:14.214Z,5.78
2018-12-10T12:17:14.355Z,5.74
2018-12-10T12:18:14.183Z,5.71
2018-12-10T12:19:14.173Z,5.64
2018-12-10T12:20:14.161Z,5.67
2018-12-10T12:21:14.163Z,5.59
2018-12-10T12:22:14.135Z,5.48
2018-12-10T12:23:14.265Z,5.41
2018-12-10T12:24:14.110Z,5.38
2018-12-10T12:25:14.129Z,5.40
2018-12-10T12:26:14.090Z,5.48
2018-12-10T12:27:14.112Z,5.45
2018-12-10T12:28:14.070Z,5.40
2018-12-10T12:29:14.063Z,5.34
2018-12-10T12:30:14.082Z,5.37
2018-12-10T12:31:14.056Z,5.30
2018-12-10T12:32:14.059Z,5.34
2018-12-10T12:33:14.070Z,5.40
2018-12-10T12:34:14.000Z,5.32
2018-12-10T12:35:14.008Z,5.38
2018-12-10T12:36:14.002Z,5.40
2018-12-10T12:37:14.015Z,5.27
2018-12-10T12:38:13.960Z,5.22
2018-12-10T12:39:13.963Z,5.25
2018-12-10T12:40:13.953Z,5.31
2018-12-10T12:41:14.939Z,5.30
2018-12-10T12:42:13.912Z,5.34
2018-12-10T12:43:16.284Z,5.32
2018-12-10T12:44:13.892Z,5.32
2018-12-10T12:45:13.900Z,5.25
2018-12-10T12:46:13.870Z,5.31
2018-12-10T12:47:13.871Z,5.30
2018-12-10T12:48:13.850Z,5.25
2018-12-10T12:49:13.863Z,5.30
2018-12-10T12:50:13.825Z,5.20
2018-12-10T12:51:13.821Z,5.19
2018-12-10T12:52:13.804Z,5.14
2018-12-10T12:53:13.794Z,5.19
2018-12-10T12:54:13.817Z,5.14
2018-12-10T12:55:13.766Z,5.09
2018-12-10T12:56:13.778Z,5.13
2018-12-10T12:57:13.750Z,5.10
2018-12-10T12:58:13.747Z,5.13
2018-12-10T12:59:13.736Z,5.16
2018-12-10T13:00:13.715Z,5.17
2018-12-10T13:01:13.859Z,5.10
2018-12-10T13:02:13.709Z,5.09
2018-12-10T13:03:13.678Z,5.09
2018-12-10T13:04:13.670Z,5.09
2018-12-10T13:05:13.657Z,5.13
2018-12-10T13:06:13.673Z,5.14
2018-12-10T13:07:13.670Z,5.09
2018-12-10T13:08:13.628Z,5.13
2018-12-10T13:09:21.586Z,5.12
2018-12-10T13:10:14.607Z,5.05
2018-12-10T13:11:13.599Z,5.01
2018-12-10T13:12:13.594Z,5.09
2018-12-10T13:13:13.598Z,5.05
2018-12-10T13:14:13.554Z,4.96
2018-12-10T13:15:13.552Z,5.01
2018-12-10T13:16:13.547Z,4.98
2018-12-10T13:17:13.559Z,4.92
2018-12-10T13:18:13.574Z,4.94